Details From LICC - Catania Fontanarossa
To LEAB - Albacete
Flight Number -
Tags Generated
Created
Modified
Stats Distance 812 nm / 1,504 km
Max Altitude 0 ft / 0 m
Waypoints 4
Social Downloads 2
Likes 0
Share VATSIM

Download

Looking for another format? Having issues loading an existing format? Contact us
Advertisement - Login to hide

Notes

Generated

Route

LICC OSMAR SOFIA LEAB

ID Type Via Altitude Latitude Longitude Leg Dist Tot Dist Heading (true) Name
O LICC APT - 0 ft / 0 m 37.46563˚ 15.05269˚ - 0 nm - -
OSMAR FIX - 0 ft / 0 m 38.25472˚ 9.78722˚ 254 nm 254 nm 282° / 279° -
SOFIA FIX - 0 ft / 0 m 39.27361˚ -1.49556˚ 531 nm 785 nm 280° / 273° -
O LEAB APT - 0 ft / 0 m 38.94797˚ -1.87906˚ 26 nm 812 nm 223° / 222° -

Altitude Profile

Advertisement - Login to hide

Weather


0- 5 10 15 20 25 30 35+ Temperature / ° C

Clouds and Precipitation
Forecast for 2018-05-21 06:00 UTC. Updated 8 minutes ago

Ground ~20,000 ft ~40,000 ft Winds

LICC

Details ICAO LICC (CTA)
Name Catania Fontanarossa
Region Italy
Timezone Europe/Rome (UTC+2.0)
Stats Elevation 39 ft / 12 m (AMSL)
Location 37.466779° 15.066401°
Runways 1
Magnetic Variation 3.257° E

METAR

LICC 210250Z VRB03KT 9999 SCT100 15/14 Q1011

Decode

TAF

TAF LICC 202300Z 2100/2124 25006KT 9999 SCT030 BECMG 2110/2112 08012KT BECMG 2118/2120 VRB05KT

Decode

Departure Runways

ID Width Length Bearing (true) Bearing (mag) Surface Threshold Offset Overrun Length
08 148 ft / 45 m 7,985 ft / 2,434 m 83.94° 80.68° Asphalt 312 ft / 95 m 0 ft / 0 m
26 148 ft / 45 m 7,985 ft / 2,434 m 263.95° 260.69° Asphalt 279 ft / 85 m 0 ft / 0 m

LEAB

Details ICAO LEAB
Name Albacete
Region Spain
Timezone Europe/Madrid (UTC+2.0)
Stats Elevation 2,301 ft / 701 m (AMSL)
Location 38.948527° -1.863500°
Runways 1
Magnetic Variation 0.119° W

METAR

LEAB 210300Z 14004KT CAVOK 10/09 Q1013 NOSIG

Decode

TAF

Not found

Destination Runways

ID Width Length Bearing (true) Bearing (mag) Surface Threshold Offset Overrun Length
09 197 ft / 60 m 8,839 ft / 2,694 m 87.36° 87.48° Asphalt 0 ft / 0 m 1,247 ft / 380 m
27 197 ft / 60 m 8,839 ft / 2,694 m 267.38° 267.50° Asphalt 0 ft / 0 m 1,247 ft / 380 m

Approach Navaids

Runway Type Ident Frequency Range Bearing (true) Bearing (mag) Slope Elevation
09 Localiser IABT 110.70 MHz 18 nm / 33 km 87.74° 87.86° - 2,301 ft / 701 m (AMSL)
09 Glidescope IABT 110.70 MHz 10 nm / 19 km 87.37° 87.49° 2.50° 2,301 ft / 701 m (AMSL)
09 DME IABT 110.70 MHz 18 nm / 33 km - - - 2,301 ft / 701 m (AMSL)
27 Localiser IAE 109.70 MHz 18 nm / 33 km 267.40° 267.52° - 2,301 ft / 701 m (AMSL)
27 Glidescope IAE 109.70 MHz 10 nm / 19 km 267.37° 267.49° 3.00° 2,301 ft / 701 m (AMSL)
27 DME IAE 109.70 MHz 18 nm / 33 km - - - 2,301 ft / 701 m (AMSL)